createdAt,value
2022-08-30T00:00:50.626Z,69.05
2022-08-30T00:03:17.890Z,68.92
2022-08-30T00:05:46.107Z,69.00
2022-08-30T00:08:13.781Z,69.07
2022-08-30T00:10:41.899Z,69.35
2022-08-30T00:13:09.814Z,69.09
2022-08-30T00:15:36.724Z,69.08
2022-08-30T00:18:03.834Z,69.01
2022-08-30T00:20:32.989Z,69.29
2022-08-30T00:23:00.451Z,69.33
2022-08-30T00:25:28.169Z,69.73
2022-08-30T00:27:55.089Z,69.45
2022-08-30T00:30:22.267Z,69.54
2022-08-30T00:32:49.200Z,69.03
2022-08-30T00:35:18.101Z,69.44
2022-08-30T00:37:44.900Z,69.67
2022-08-30T00:40:14.047Z,69.78
2022-08-30T00:42:41.081Z,70.31
2022-08-30T00:45:19.341Z,70.18
2022-08-30T00:47:46.856Z,70.66
2022-08-30T00:50:16.611Z,70.69
2022-08-30T00:52:48.454Z,71.00
2022-08-30T00:55:17.960Z,70.93
2022-08-30T00:57:47.712Z,70.51
2022-08-30T01:00:15.849Z,70.29
2022-08-30T01:02:43.264Z,70.13
2022-08-30T01:05:16.031Z,70.47
2022-08-30T01:07:43.565Z,70.52
2022-08-30T01:10:13.736Z,70.45
2022-08-30T01:12:43.296Z,70.79
2022-08-30T01:15:12.107Z,71.09
2022-08-30T01:17:39.546Z,71.28
2022-08-30T01:20:21.906Z,71.94
2022-08-30T01:22:51.556Z,71.80
2022-08-30T01:25:27.769Z,71.73
2022-08-30T01:28:00.600Z,72.01
2022-08-30T01:30:29.495Z,72.07
2022-08-30T01:33:02.732Z,72.26
2022-08-30T01:35:35.716Z,71.90
2022-08-30T01:38:02.665Z,72.11
2022-08-30T01:40:29.624Z,72.04
2022-08-30T01:42:56.539Z,72.28
2022-08-30T01:45:23.379Z,72.29
2022-08-30T01:47:50.408Z,72.15
2022-08-30T01:50:17.342Z,72.17
2022-08-30T01:52:44.224Z,72.40
2022-08-30T01:55:11.232Z,72.19
2022-08-30T01:57:38.105Z,72.56
2022-08-30T02:00:08.831Z,72.45
2022-08-30T02:02:38.664Z,72.81
2022-08-30T02:05:06.894Z,72.71
2022-08-30T02:07:33.752Z,73.02
2022-08-30T02:10:00.555Z,73.04
2022-08-30T02:12:28.213Z,73.22
2022-08-30T02:14:55.057Z,73.67
2022-08-30T02:17:21.922Z,73.85
2022-08-30T02:19:48.733Z,73.64
2022-08-30T02:22:16.295Z,73.48
2022-08-30T02:24:43.198Z,73.28
2022-08-30T02:27:10.026Z,73.26
2022-08-30T02:29:36.862Z,73.31
2022-08-30T02:32:04.513Z,73.70
2022-08-30T02:34:31.708Z,73.38
2022-08-30T02:36:58.598Z,72.78
2022-08-30T02:39:25.500Z,72.95
2022-08-30T02:41:52.770Z,72.51
2022-08-30T02:44:19.708Z,72.68
2022-08-30T02:46:46.487Z,73.05
2022-08-30T02:49:32.692Z,72.75
2022-08-30T02:52:00.166Z,73.04
2022-08-30T02:54:26.964Z,73.22
2022-08-30T02:56:53.748Z,73.56
2022-08-30T02:59:20.623Z,72.81
2022-08-30T03:01:47.502Z,72.73
2022-08-30T03:04:14.308Z,73.12
2022-08-30T03:06:41.290Z,73.35
2022-08-30T03:09:08.154Z,73.09
2022-08-30T03:11:34.980Z,73.61
2022-08-30T03:14:03.983Z,73.38
2022-08-30T03:16:30.900Z,73.62
2022-08-30T03:18:57.871Z,74.39
2022-08-30T03:21:24.714Z,73.94
2022-08-30T03:23:51.527Z,73.86
2022-08-30T03:26:18.343Z,74.28
2022-08-30T03:28:45.284Z,74.49
2022-08-30T03:31:13.332Z,74.69
2022-08-30T03:33:40.654Z,74.97
2022-08-30T03:36:09.215Z,75.26
2022-08-30T03:38:36.144Z,75.26
2022-08-30T03:41:03.352Z,75.44
2022-08-30T03:43:30.818Z,75.86
2022-08-30T03:45:58.472Z,75.46
2022-08-30T03:48:25.420Z,75.33
2022-08-30T03:50:52.406Z,75.66
2022-08-30T03:53:19.914Z,75.72
2022-08-30T03:55:46.758Z,76.22
2022-08-30T03:58:19.191Z,76.35
2022-08-30T04:00:46.721Z,76.48
2022-08-30T04:03:13.660Z,76.20
2022-08-30T04:05:40.497Z,76.32
2022-08-30T04:08:07.349Z,76.55
2022-08-30T04:10:34.192Z,76.57
2022-08-30T04:13:01.120Z,76.53
2022-08-30T04:15:28.029Z,76.85
2022-08-30T04:17:54.952Z,76.91
2022-08-30T04:20:21.944Z,76.10
2022-08-30T04:22:48.881Z,75.49
2022-08-30T04:25:16.078Z,75.44
2022-08-30T04:27:45.736Z,75.58
2022-08-30T04:30:14.723Z,75.58
2022-08-30T04:32:41.879Z,75.68
2022-08-30T04:35:10.067Z,75.87
2022-08-30T04:37:38.899Z,75.42
2022-08-30T04:40:06.937Z,75.48
2022-08-30T04:42:35.477Z,75.60
2022-08-30T04:45:07.842Z,75.48
2022-08-30T04:47:34.824Z,75.74
2022-08-30T04:50:01.714Z,76.34
2022-08-30T04:52:28.785Z,76.41
2022-08-30T04:54:57.373Z,76.69
2022-08-30T04:57:26.014Z,76.20
2022-08-30T04:59:53.653Z,75.92
2022-08-30T05:02:21.037Z,76.10
2022-08-30T05:04:48.289Z,76.04
2022-08-30T05:07:15.129Z,76.55
2022-08-30T05:09:41.982Z,76.54
2022-08-30T05:12:08.777Z,77.31
2022-08-30T05:14:35.620Z,76.96
2022-08-30T05:17:02.508Z,76.45
2022-08-30T05:19:32.440Z,77.26
2022-08-30T05:22:00.326Z,77.69
2022-08-30T05:24:27.184Z,76.63
2022-08-30T05:26:54.021Z,76.56
2022-08-30T05:29:21.130Z,76.90
2022-08-30T05:31:47.999Z,76.11
2022-08-30T05:34:14.840Z,76.09
2022-08-30T05:36:41.700Z,76.31
2022-08-30T05:39:09.967Z,76.33
2022-08-30T05:41:38.091Z,75.64
2022-08-30T05:44:06.997Z,75.30
2022-08-30T05:46:35.426Z,76.02
2022-08-30T05:49:05.113Z,76.04
2022-08-30T05:51:34.703Z,75.93
2022-08-30T05:54:01.733Z,74.87
2022-08-30T05:56:34.215Z,74.57
2022-08-30T05:59:02.446Z,74.71
2022-08-30T06:01:38.934Z,74.59
2022-08-30T06:04:07.840Z,74.42
2022-08-30T06:06:36.648Z,73.50
2022-08-30T06:09:05.906Z,74.01
2022-08-30T06:11:33.796Z,72.69
2022-08-30T06:14:01.153Z,71.09
2022-08-30T06:16:29.445Z,71.44
2022-08-30T06:18:58.534Z,72.90
2022-08-30T06:21:27.979Z,72.58
2022-08-30T06:23:56.530Z,70.74
2022-08-30T06:26:24.470Z,70.42
2022-08-30T06:28:51.747Z,70.13
2022-08-30T06:31:20.867Z,69.88
2022-08-30T06:33:49.525Z,71.00
2022-08-30T06:36:20.037Z,70.16
2022-08-30T06:38:49.313Z,68.61
2022-08-30T06:41:19.300Z,67.96
2022-08-30T06:43:49.077Z,67.54
2022-08-30T06:46:26.355Z,68.91
2022-08-30T06:48:55.811Z,68.39
2022-08-30T06:51:28.931Z,69.96
2022-08-30T06:53:57.141Z,69.72
2022-08-30T06:56:25.573Z,66.86
2022-08-30T06:58:52.554Z,66.52
2022-08-30T07:01:25.616Z,67.15
2022-08-30T07:03:53.554Z,66.01
2022-08-30T07:06:21.047Z,66.06
2022-08-30T07:08:48.522Z,65.85
2022-08-30T07:11:26.747Z,65.45
2022-08-30T07:13:55.530Z,66.74
2022-08-30T07:16:22.927Z,65.66
2022-08-30T07:18:49.809Z,66.12
2022-08-30T07:21:19.471Z,67.06
2022-08-30T07:23:52.600Z,66.37
2022-08-30T07:26:24.831Z,65.02
2022-08-30T07:28:55.927Z,64.35
2022-08-30T07:31:24.167Z,63.73
2022-08-30T07:33:51.542Z,62.94
2022-08-30T07:36:19.209Z,63.21
2022-08-30T07:38:47.023Z,62.85
2022-08-30T07:41:34.876Z,62.79
2022-08-30T07:44:02.131Z,63.06
2022-08-30T07:46:29.069Z,62.32
2022-08-30T07:48:56.014Z,62.19
2022-08-30T07:51:25.134Z,62.10
2022-08-30T07:53:52.427Z,61.42
2022-08-30T07:56:19.798Z,60.39
2022-08-30T07:58:47.148Z,61.00
2022-08-30T08:01:15.247Z,60.49
2022-08-30T08:03:43.220Z,60.29
2022-08-30T08:06:12.951Z,61.12
2022-08-30T08:08:40.853Z,61.98
2022-08-30T08:11:16.449Z,60.10
2022-08-30T08:13:52.789Z,60.03
2022-08-30T08:16:26.753Z,59.20
2022-08-30T08:18:54.647Z,59.39
2022-08-30T08:21:23.049Z,59.43
2022-08-30T08:23:49.974Z,59.92
2022-08-30T08:26:17.119Z,60.64
2022-08-30T08:28:44.369Z,59.32
2022-08-30T08:31:20.687Z,59.58
2022-08-30T08:33:47.856Z,57.15
2022-08-30T08:36:15.406Z,57.61
2022-08-30T08:38:43.207Z,57.77
2022-08-30T08:41:35.249Z,58.32
2022-08-30T08:44:13.781Z,55.49
2022-08-30T08:46:49.561Z,55.46
2022-08-30T08:49:16.873Z,56.79
2022-08-30T08:51:43.770Z,53.32
2022-08-30T08:54:15.222Z,53.98
2022-08-30T08:56:42.450Z,51.85
2022-08-30T08:59:11.594Z,52.70
2022-08-30T09:01:38.986Z,52.63
2022-08-30T09:04:11.873Z,53.05
2022-08-30T09:07:00.877Z,48.89
2022-08-30T09:09:37.207Z,48.51
2022-08-30T09:12:05.504Z,47.71
2022-08-30T09:14:45.978Z,49.95
2022-08-30T09:17:18.454Z,49.32
2022-08-30T09:19:52.068Z,46.99
2022-08-30T09:22:32.757Z,49.22
2022-08-30T09:25:14.516Z,48.92
2022-08-30T09:27:49.467Z,47.92
2022-08-30T09:30:16.280Z,46.78
2022-08-30T09:32:51.330Z,46.94
2022-08-30T09:35:22.305Z,46.93
2022-08-30T09:38:07.918Z,46.17
2022-08-30T09:40:48.932Z,47.04
2022-08-30T09:43:18.712Z,46.65
2022-08-30T09:45:49.665Z,48.06
2022-08-30T09:48:36.525Z,47.00
2022-08-30T09:51:34.373Z,45.73
2022-08-30T09:54:17.675Z,46.89
2022-08-30T09:57:03.367Z,47.24
2022-08-30T10:00:04.494Z,46.22
2022-08-30T10:02:53.347Z,45.66
2022-08-30T10:05:23.632Z,47.70
2022-08-30T10:07:54.872Z,46.65
2022-08-30T10:10:37.827Z,44.89
2022-08-30T10:13:25.808Z,46.46
2022-08-30T10:16:09.870Z,47.27
2022-08-30T10:18:43.493Z,48.04
2022-08-30T10:21:19.179Z,47.62
2022-08-30T10:23:54.012Z,47.75
2022-08-30T10:26:33.144Z,46.67
2022-08-30T10:29:08.714Z,47.89
2022-08-30T10:31:44.676Z,48.08
2022-08-30T10:34:51.936Z,47.53
2022-08-30T10:37:26.407Z,46.69
2022-08-30T10:39:58.197Z,45.13
2022-08-30T10:42:39.981Z,45.09
2022-08-30T10:45:14.988Z,46.16
2022-08-30T10:48:17.168Z,47.44
2022-08-30T10:50:52.018Z,46.13
2022-08-30T10:53:43.849Z,43.68
2022-08-30T10:56:17.094Z,44.34
2022-08-30T10:58:44.256Z,44.79
2022-08-30T11:01:33.650Z,44.20
2022-08-30T11:04:28.812Z,46.45
2022-08-30T11:06:58.662Z,46.07
2022-08-30T11:10:02.708Z,46.20
2022-08-30T11:12:51.103Z,45.45
2022-08-30T11:15:40.034Z,46.06
2022-08-30T11:18:09.702Z,44.93
2022-08-30T11:20:49.885Z,45.25
2022-08-30T11:23:32.601Z,46.27
2022-08-30T11:26:20.462Z,45.95
2022-08-30T11:28:48.467Z,45.21
2022-08-30T11:31:18.237Z,45.06
2022-08-30T11:33:49.879Z,45.51
2022-08-30T11:36:37.038Z,44.83
2022-08-30T11:39:10.967Z,44.70
2022-08-30T11:41:48.065Z,42.94
2022-08-30T11:44:30.641Z,42.35
2022-08-30T11:47:00.832Z,42.79
2022-08-30T11:49:55.222Z,42.76
2022-08-30T11:52:27.065Z,44.09
2022-08-30T11:55:12.737Z,44.78
2022-08-30T11:57:58.595Z,44.50
2022-08-30T12:00:36.763Z,42.34
2022-08-30T12:03:27.289Z,43.05
2022-08-30T12:06:01.628Z,42.24
2022-08-30T12:08:28.478Z,41.64
2022-08-30T12:11:05.264Z,41.68
2022-08-30T12:13:34.818Z,41.74
2022-08-30T12:16:03.229Z,42.73
2022-08-30T12:18:39.158Z,42.74
2022-08-30T12:21:20.043Z,41.87
2022-08-30T12:23:57.167Z,41.26
2022-08-30T12:26:25.108Z,41.52
2022-08-30T12:29:21.686Z,41.57
2022-08-30T12:31:53.636Z,42.53
2022-08-30T12:34:25.864Z,41.81
2022-08-30T12:37:00.492Z,42.58
2022-08-30T12:39:53.845Z,42.53
2022-08-30T12:42:26.896Z,43.25
2022-08-30T12:44:58.558Z,43.26
2022-08-30T12:47:52.557Z,42.41
2022-08-30T12:50:36.317Z,42.35
2022-08-30T12:53:13.919Z,41.57
2022-08-30T12:56:13.246Z,41.63
2022-08-30T12:58:45.145Z,41.78
2022-08-30T13:01:24.810Z,41.35
2022-08-30T13:03:54.709Z,42.34
2022-08-30T13:06:49.344Z,42.50
2022-08-30T13:09:27.561Z,42.93
2022-08-30T13:12:01.682Z,42.79
2022-08-30T13:14:43.525Z,42.06
2022-08-30T13:17:20.410Z,41.37
2022-08-30T13:19:59.062Z,40.74
2022-08-30T13:22:28.822Z,40.46
2022-08-30T13:24:56.263Z,39.78
2022-08-30T13:27:24.187Z,39.64
2022-08-30T13:29:53.243Z,40.82
2022-08-30T13:32:21.043Z,39.40
2022-08-30T13:34:49.755Z,40.78
2022-08-30T13:40:12.435Z,40.41
2022-08-30T13:42:40.143Z,40.61
2022-08-30T13:45:40.951Z,40.63
2022-08-30T13:47:55.193Z,41.10
2022-08-30T13:50:22.084Z,39.63
2022-08-30T13:52:49.454Z,39.70
2022-08-30T13:55:16.412Z,40.49
2022-08-30T13:57:58.612Z,40.03
2022-08-30T14:00:26.795Z,39.98
2022-08-30T14:02:55.578Z,40.47
2022-08-30T14:11:09.523Z,38.86
2022-08-30T14:13:37.374Z,39.24
2022-08-30T14:18:56.756Z,39.72
2022-08-30T14:21:24.720Z,39.80
2022-08-30T14:23:53.519Z,39.30
2022-08-30T14:26:23.996Z,39.34
2022-08-30T14:28:51.935Z,38.74
2022-08-30T14:31:20.210Z,38.25
2022-08-30T14:33:48.011Z,38.75
2022-08-30T14:36:16.811Z,39.24
2022-08-30T14:38:44.534Z,39.17
2022-08-30T14:41:12.041Z,39.17
2022-08-30T14:43:39.758Z,39.06
2022-08-30T14:46:09.009Z,39.16
2022-08-30T14:48:38.230Z,39.05
2022-08-30T14:51:13.459Z,39.10
2022-08-30T14:53:40.595Z,40.10
2022-08-30T14:56:12.572Z,40.02
2022-08-30T14:58:39.628Z,40.20
2022-08-30T15:01:12.360Z,40.69
2022-08-30T15:03:41.126Z,39.83
2022-08-30T15:06:09.133Z,39.44
2022-08-30T15:08:37.344Z,39.72
2022-08-30T15:11:09.149Z,39.89
2022-08-30T15:13:36.748Z,39.93
2022-08-30T15:16:12.003Z,39.76
2022-08-30T15:18:39.120Z,39.57
2022-08-30T15:21:09.403Z,39.65
2022-08-30T15:23:37.413Z,40.04
2022-08-30T15:26:08.080Z,39.08
2022-08-30T15:28:36.292Z,39.80
2022-08-30T15:31:08.553Z,39.78
2022-08-30T15:33:37.427Z,38.43
2022-08-30T15:36:05.472Z,39.15
2022-08-30T15:38:33.266Z,39.47
2022-08-30T15:41:03.696Z,39.82
2022-08-30T15:43:31.472Z,39.66
2022-08-30T15:46:16.208Z,39.63
2022-08-30T15:48:45.825Z,39.77
2022-08-30T15:51:13.146Z,39.48
2022-08-30T15:53:40.824Z,40.11
2022-08-30T15:56:08.095Z,39.84
2022-08-30T15:58:35.047Z,40.12
2022-08-30T16:01:02.030Z,40.34
2022-08-30T16:03:29.668Z,40.56
2022-08-30T16:05:57.198Z,40.47
2022-08-30T16:08:24.342Z,40.89
2022-08-30T16:10:52.686Z,40.84
2022-08-30T16:13:20.064Z,40.27
2022-08-30T16:15:46.919Z,40.81
2022-08-30T16:18:14.536Z,40.96
2022-08-30T16:20:43.975Z,40.64
2022-08-30T16:23:11.626Z,41.06
2022-08-30T16:25:40.666Z,40.66
2022-08-30T16:28:07.898Z,40.65
2022-08-30T16:30:36.677Z,39.62
2022-08-30T16:33:03.698Z,40.37
2022-08-30T16:35:30.608Z,41.11
2022-08-30T16:37:57.629Z,37.84
2022-08-30T16:40:24.552Z,35.73
2022-08-30T16:42:51.882Z,34.66
2022-08-30T16:45:19.239Z,33.66
2022-08-30T16:47:46.218Z,32.39
2022-08-30T16:50:13.303Z,32.77
2022-08-30T16:52:44.032Z,32.17
2022-08-30T16:55:11.162Z,31.97
2022-08-30T16:57:38.739Z,32.35
2022-08-30T17:00:06.720Z,32.95
2022-08-30T17:02:40.232Z,32.65
2022-08-30T17:05:12.323Z,33.40
2022-08-30T17:07:40.054Z,34.19
2022-08-30T17:10:08.926Z,35.61
2022-08-30T17:12:36.033Z,36.13
2022-08-30T17:15:05.525Z,37.17
2022-08-30T17:17:32.948Z,38.74
2022-08-30T17:19:59.810Z,39.04
2022-08-30T17:22:30.675Z,39.86
2022-08-30T17:24:57.488Z,40.32
2022-08-30T17:27:24.355Z,41.28
2022-08-30T17:29:51.249Z,41.34
2022-08-30T17:32:18.190Z,41.94
2022-08-30T17:34:45.283Z,42.66
2022-08-30T17:37:12.460Z,42.46
2022-08-30T17:39:39.869Z,43.01
2022-08-30T17:42:07.031Z,43.78
2022-08-30T17:44:35.504Z,43.98
2022-08-30T17:47:02.418Z,43.92
2022-08-30T17:49:30.185Z,44.55
2022-08-30T17:51:59.353Z,45.36
2022-08-30T17:54:28.437Z,45.39
2022-08-30T17:56:56.863Z,45.32
2022-08-30T17:59:25.760Z,45.71
2022-08-30T18:01:54.922Z,45.80
2022-08-30T18:04:25.047Z,46.50
2022-08-30T18:06:52.617Z,46.25
2022-08-30T18:09:19.574Z,46.35
2022-08-30T18:11:48.266Z,47.12
2022-08-30T18:14:15.525Z,46.88
2022-08-30T18:16:53.471Z,47.23
2022-08-30T18:19:23.319Z,48.09
2022-08-30T18:21:50.572Z,47.93
2022-08-30T18:24:18.097Z,49.09
2022-08-30T18:26:45.358Z,48.64
2022-08-30T18:29:12.272Z,49.40
2022-08-30T18:31:39.628Z,49.90
2022-08-30T18:34:12.430Z,49.11
2022-08-30T18:36:40.331Z,49.20
2022-08-30T18:39:09.373Z,49.26
2022-08-30T18:41:42.978Z,50.56
2022-08-30T18:44:27.281Z,50.82
2022-08-30T18:46:56.338Z,51.43
2022-08-30T18:49:27.205Z,50.84
2022-08-30T18:51:54.514Z,51.77
2022-08-30T18:54:21.732Z,52.37
2022-08-30T18:56:50.713Z,53.14
2022-08-30T18:59:19.880Z,52.88
2022-08-30T19:01:48.741Z,53.24
2022-08-30T19:04:29.458Z,53.25
2022-08-30T19:07:03.198Z,52.68
2022-08-30T19:09:30.700Z,54.22
2022-08-30T19:11:58.425Z,52.93
2022-08-30T19:14:28.073Z,52.36
2022-08-30T19:16:56.909Z,52.86
2022-08-30T19:19:26.051Z,52.46
2022-08-30T19:21:53.390Z,52.48
2022-08-30T19:24:21.627Z,52.22
2022-08-30T19:26:49.196Z,53.12
2022-08-30T19:29:17.248Z,52.73
2022-08-30T19:31:44.489Z,52.86
2022-08-30T19:34:11.947Z,53.60
2022-08-30T19:36:39.106Z,53.32
2022-08-30T19:39:07.051Z,53.24
2022-08-30T19:41:34.380Z,53.46
2022-08-30T19:44:02.220Z,53.83
2022-08-30T19:46:31.175Z,54.74
2022-08-30T19:48:59.917Z,55.19
2022-08-30T19:51:26.999Z,54.86
2022-08-30T19:53:56.396Z,54.59
2022-08-30T19:56:25.574Z,54.80
2022-08-30T19:58:52.413Z,54.89
2022-08-30T20:01:33.383Z,55.20
2022-08-30T20:04:01.747Z,55.51
2022-08-30T20:06:29.060Z,57.12
2022-08-30T20:11:42.769Z,56.24
2022-08-30T20:14:10.186Z,56.33
2022-08-30T20:16:40.646Z,57.18
2022-08-30T20:19:10.340Z,57.98
2022-08-30T20:21:38.562Z,58.96
2022-08-30T20:24:09.920Z,59.57
2022-08-30T20:26:37.738Z,59.86
2022-08-30T20:29:05.849Z,59.02
2022-08-30T20:31:33.214Z,58.26
2022-08-30T20:34:01.005Z,57.95
2022-08-30T20:36:27.996Z,58.38
2022-08-30T20:38:54.838Z,59.35
2022-08-30T20:41:21.739Z,59.73
2022-08-30T20:43:48.587Z,59.99
2022-08-30T20:46:20.148Z,59.56
2022-08-30T20:48:48.116Z,58.99
2022-08-30T20:51:18.260Z,59.53
2022-08-30T20:53:45.999Z,59.59
2022-08-30T20:56:16.661Z,59.41
2022-08-30T20:58:43.961Z,59.93
2022-08-30T21:01:12.429Z,59.90
2022-08-30T21:03:40.069Z,59.80
2022-08-30T21:06:06.942Z,60.55
2022-08-30T21:08:34.559Z,60.44
2022-08-30T21:11:01.559Z,60.08
2022-08-30T21:13:28.583Z,60.23
2022-08-30T21:16:00.688Z,60.00
2022-08-30T21:18:32.627Z,60.66
2022-08-30T21:21:07.045Z,60.87
2022-08-30T21:23:35.837Z,61.89
2022-08-30T21:26:10.542Z,62.73
2022-08-30T21:28:37.620Z,63.27
2022-08-30T21:31:07.388Z,62.55
2022-08-30T21:33:34.612Z,62.62
2022-08-30T21:36:01.654Z,62.20
2022-08-30T21:38:28.433Z,62.05
2022-08-30T21:40:55.256Z,61.20
2022-08-30T21:43:21.941Z,61.35
2022-08-30T21:45:48.810Z,61.36
2022-08-30T21:48:15.680Z,61.51
2022-08-30T21:50:42.972Z,62.04
2022-08-30T21:53:10.652Z,62.14
2022-08-30T21:55:37.514Z,62.20
2022-08-30T21:58:04.465Z,62.26
2022-08-30T22:00:32.324Z,62.78
2022-08-30T22:02:59.167Z,62.73
2022-08-30T22:05:26.080Z,63.00
2022-08-30T22:07:52.785Z,63.31
2022-08-30T22:10:19.657Z,63.29
2022-08-30T22:12:46.689Z,63.26
2022-08-30T22:15:14.620Z,63.26
2022-08-30T22:17:41.446Z,63.41
2022-08-30T22:20:09.548Z,63.67
2022-08-30T22:22:36.363Z,63.79
2022-08-30T22:25:03.815Z,64.26
2022-08-30T22:27:30.772Z,63.79
2022-08-30T22:29:58.531Z,63.59
2022-08-30T22:32:25.308Z,63.02
2022-08-30T22:34:52.084Z,62.73
2022-08-30T22:37:18.972Z,64.54
2022-08-30T22:39:45.940Z,64.92
2022-08-30T22:42:12.771Z,65.60
2022-08-30T22:44:39.533Z,66.08
2022-08-30T22:47:06.491Z,66.40
2022-08-30T22:49:33.307Z,66.64
2022-08-30T22:52:00.166Z,66.79
2022-08-30T22:54:26.945Z,67.06
2022-08-30T22:56:53.881Z,67.14
2022-08-30T22:59:20.785Z,67.20
2022-08-30T23:01:54.177Z,67.48
2022-08-30T23:04:21.156Z,67.87
2022-08-30T23:06:49.891Z,67.77
2022-08-30T23:09:17.358Z,68.41
2022-08-30T23:11:44.191Z,68.10
2022-08-30T23:14:11.112Z,69.02
2022-08-30T23:16:38.084Z,68.57
2022-08-30T23:19:05.517Z,68.43
2022-08-30T23:21:32.459Z,66.54
2022-08-30T23:23:59.788Z,65.44
2022-08-30T23:26:26.701Z,65.38
2022-08-30T23:28:53.536Z,66.39
2022-08-30T23:31:20.430Z,66.15
2022-08-30T23:33:47.247Z,65.24
2022-08-30T23:36:14.943Z,66.31
2022-08-30T23:38:42.278Z,67.04
2022-08-30T23:41:10.542Z,67.64
2022-08-30T23:43:38.256Z,67.94
2022-08-30T23:46:05.281Z,68.12
2022-08-30T23:48:32.200Z,68.11
2022-08-30T23:50:59.160Z,68.29
2022-08-30T23:53:25.952Z,68.36
2022-08-30T23:55:53.071Z,69.55
2022-08-30T23:58:19.867Z,69.69
